Time;durP1;ratioP1;P1;durP2;ratioP2;P2;SDS_P1;SDS_P2;PMS_P1;PMS_P2;Temp;Humidity;BMP_temperature;BMP_pressure;BME280_temperature;BME280_humidity;BME280_pressure;Samples;Min_cycle;Max_cycle;Signal;HPM_P1;HPM_P2
2023/05/19 00:01:48;;;;;;;;;;;;;;;-144.99;79.88;52293.19;5023711;28;19933;-69
2023/05/19 00:04:15;;;;;;;;;;;;;;;-144.99;80.01;52285.03;5021403;28;19936;-69
2023/05/19 00:06:43;;;;;;;;;;;;;;;-144.99;79.96;52313.56;5023116;28;19979;-68
2023/05/19 00:09:10;;;;;;;;;;;;;;;-144.99;80.18;52305.41;5024367;28;20027;-68
2023/05/19 00:11:38;;;;;;;;;;;;;;;-144.99;80.29;52299.31;5023547;28;20373;-67
2023/05/19 00:14:05;;;;;;;;;;;;;;;-144.99;80.49;52268.72;5023236;28;19929;-68
2023/05/19 00:16:32;;;;;;;;;;;;;;;-144.99;80.48;52248.34;5025241;28;19932;-66
2023/05/19 00:19:01;;;;;;;;;;;;;;;-144.99;80.41;52262.63;5027944;28;20033;-67
2023/05/19 00:21:28;;;;;;;;;;;;;;;-144.99;80.25;52321.72;5027988;28;20341;-67
2023/05/19 00:23:54;;;;;;;;;;;;;;;-144.99;80.56;52252.44;5027378;28;19929;-67
2023/05/19 00:26:21;;;;;;;;;;;;;;;-144.99;80.51;52276.88;5029003;28;19933;-67
2023/05/19 00:28:48;;;;;;;;;;;;;;;-144.99;80.64;52303.38;5027901;28;19926;-67
2023/05/19 00:31:15;;;;;;;;;;;;;;;-144.99;80.57;52315.59;5019374;28;19929;-66
2023/05/19 00:33:42;;;;;;;;;;;;;;;-144.99;80.82;52256.50;5024207;28;20365;-68
2023/05/19 00:36:10;;;;;;;;;;;;;;;-144.99;80.77;52258.53;5021964;28;20016;-66
2023/05/19 00:38:37;;;;;;;;;;;;;;;-144.99;80.79;52264.66;5022115;28;20251;-66
2023/05/19 00:41:04;;;;;;;;;;;;;;;-144.99;80.89;52260.56;5020071;28;20014;-67
2023/05/19 00:43:33;;;;;;;;;;;;;;;-144.99;81.00;52278.91;5018973;28;19929;-71
2023/05/19 00:45:59;;;;;;;;;;;;;;;-144.99;81.12;52244.28;5024615;28;20096;-71
2023/05/19 00:48:26;;;;;;;;;;;;;;;-144.99;81.54;52272.81;5024104;28;19956;-71
2023/05/19 00:50:53;;;;;;;;;;;;;;;-144.99;82.00;52299.31;5023493;28;20298;-68
2023/05/19 00:53:23;;;;;;;;;;;;;;;-144.99;82.19;52254.47;5023337;28;19983;-68
2023/05/19 00:55:49;;;;;;;;;;;;;;;-144.99;82.10;52289.13;5021413;28;19929;-68
2023/05/19 00:58:16;;;;;;;;;;;;;;;-144.99;82.42;52254.47;5023920;28;20139;-69
2023/05/19 01:00:43;;;;;;;;;;;;;;;-144.99;82.47;52289.13;5022614;28;19945;-68
2023/05/19 01:03:10;;;;;;;;;;;;;;;-144.99;82.55;52285.03;5020241;28;19936;-68
2023/05/19 01:05:40;;;;;;;;;;;;;;;-144.99;82.48;52309.50;5020870;28;19929;-68
2023/05/19 01:08:07;;;;;;;;;;;;;;;-144.99;82.73;52280.97;5023223;28;20294;-69
2023/05/19 01:10:35;;;;;;;;;;;;;;;-144.99;82.64;52260.56;5025100;28;19943;-68
2023/05/19 01:13:03;;;;;;;;;;;;;;;-144.99;82.70;52283.00;5022682;28;19933;-68
2023/05/19 01:15:32;;;;;;;;;;;;;;;-144.99;82.84;52287.06;5019329;28;20598;-69
2023/05/19 01:18:02;;;;;;;;;;;;;;;-144.99;82.74;52289.13;5022684;28;19926;-69
2023/05/19 01:20:33;;;;;;;;;;;;;;;-144.99;82.92;52252.44;5023217;28;20297;-70
2023/05/19 01:23:13;;;;;;;;;;;;;;;-144.99;82.72;52283.00;5020605;28;20056;-69
2023/05/19 01:25:55;;;;;;;;;;;;;;;-144.99;82.76;52280.97;5021846;28;19971;-68
2023/05/19 01:28:31;;;;;;;;;;;;;;;-144.99;83.33;52272.81;4985449;28;20400;-67
2023/05/19 01:31:00;;;;;;;;;;;;;;;-144.99;85.23;52317.66;5023791;28;19932;-67
2023/05/19 01:33:28;;;;;;;;;;;;;;;-144.99;83.69;52299.31;5020401;28;19933;-67
2023/05/19 01:35:55;;;;;;;;;;;;;;;-144.99;83.52;52256.50;5023887;28;19925;-67
2023/05/19 01:38:23;;;;;;;;;;;;;;;-144.99;83.62;52285.03;5022393;28;19931;-68
2023/05/19 01:40:50;;;;;;;;;;;;;;;-144.99;83.78;52301.34;5023571;28;19929;-68
2023/05/19 01:43:26;;;;;;;;;;;;;;;-144.99;83.69;52276.88;5020939;28;19929;-68
2023/05/19 01:45:53;;;;;;;;;;;;;;;-144.99;83.68;52280.97;5022339;28;19975;-68
2023/05/19 01:48:21;;;;;;;;;;;;;;;-144.99;83.79;52297.25;5023014;28;20354;-68
2023/05/19 01:50:48;;;;;;;;;;;;;;;-144.99;83.87;52289.13;5021781;28;20239;-67
2023/05/19 01:53:15;;;;;;;;;;;;;;;-144.99;84.08;52301.34;5020871;28;19952;-68
2023/05/19 01:55:43;;;;;;;;;;;;;;;-144.99;84.17;52309.50;5026256;28;19925;-68
2023/05/19 01:58:15;;;;;;;;;;;;;;;-144.99;84.26;52289.13;5026316;28;19932;-67
2023/05/19 02:00:49;;;;;;;;;;;;;;;-144.99;84.49;52285.03;5024318;28;19929;-67
2023/05/19 02:03:20;;;;;;;;;;;;;;;-144.99;84.59;52283.00;5024807;28;19960;-67
2023/05/19 02:05:53;;;;;;;;;;;;;;;-144.99;84.75;52309.50;5024864;28;20341;-67
2023/05/19 02:08:24;;;;;;;;;;;;;;;-144.99;85.07;52303.38;5027331;28;19983;-67
2023/05/19 02:10:55;;;;;;;;;;;;;;;-144.99;85.31;52293.19;5025625;28;20337;-67
2023/05/19 02:13:24;;;;;;;;;;;;;;;-144.99;85.44;52240.19;5023997;28;20453;-67
2023/05/19 02:15:52;;;;;;;;;;;;;;;-144.99;86.11;52268.72;5026167;28;20004;-67
2023/05/19 02:18:19;;;;;;;;;;;;;;;-144.99;85.61;52301.34;5031534;28;19929;-67
2023/05/19 02:20:45;;;;;;;;;;;;;;;-144.99;85.81;52301.34;5050828;22;19988;-66
2023/05/19 02:23:13;;;;;;;;;;;;;;;-144.99;85.99;52256.50;5057167;28;19928;-65
2023/05/19 02:25:40;;;;;;;;;;;;;;;-144.99;85.96;52293.19;5042074;28;19933;-65
2023/05/19 02:28:07;;;;;;;;;;;;;;;-144.99;87.33;52309.50;5051369;28;19937;-67
2023/05/19 02:30:33;;;;;;;;;;;;;;;-144.99;88.16;52289.13;5049540;28;20322;-64
2023/05/19 02:33:00;;;;;;;;;;;;;;;-144.99;88.90;52315.59;5044453;28;19937;-64
2023/05/19 02:35:26;;;;;;;;;;;;;;;-144.99;89.39;52297.25;5041726;28;19924;-64
2023/05/19 02:37:53;;;;;;;;;;;;;;;-144.99;89.56;52336.00;5038890;28;19925;-64
2023/05/19 02:40:22;;;;;;;;;;;;;;;-144.99;89.36;52309.50;5041726;28;19931;-64
2023/05/19 02:42:48;;;;;;;;;;;;;;;-144.99;89.35;52321.72;5037690;28;21122;-65
2023/05/19 02:45:15;;;;;;;;;;;;;;;-144.99;87.47;52303.38;5043927;28;19933;-64
2023/05/19 02:47:42;;;;;;;;;;;;;;;-144.99;87.25;52317.66;5037723;28;20350;-64
2023/05/19 02:50:09;;;;;;;;;;;;;;;-144.99;86.53;52309.50;5043675;28;19929;-65
2023/05/19 02:52:35;;;;;;;;;;;;;;;-144.99;86.43;52285.03;5041764;28;19932;-66
2023/05/19 02:55:02;;;;;;;;;;;;;;;-144.99;86.90;52268.72;5044566;28;20085;-65
2023/05/19 02:57:31;;;;;;;;;;;;;;;-144.99;86.38;52301.34;5039575;28;20206;-65
2023/05/19 02:59:58;;;;;;;;;;;;;;;-144.99;86.36;52260.56;5040456;28;20021;-64
2023/05/19 03:02:25;;;;;;;;;;;;;;;-144.99;87.33;52266.69;5043181;28;19932;-64
2023/05/19 03:04:53;;;;;;;;;;;;;;;-144.99;88.81;52293.19;5044072;28;20190;-64
2023/05/19 03:07:23;;;;;;;;;;;;;;;-144.99;89.24;52262.63;5040684;28;19925;-65
2023/05/19 03:09:51;;;;;;;;;;;;;;;-144.99;89.44;52301.34;5040646;28;19924;-65
2023/05/19 03:12:17;;;;;;;;;;;;;;;-144.99;87.55;52289.13;5041329;28;19933;-65
2023/05/19 03:14:46;;;;;;;;;;;;;;;-144.99;87.22;52280.97;5045073;28;20604;-65
2023/05/19 03:17:13;;;;;;;;;;;;;;;-144.99;88.11;52293.19;5043438;28;20367;-64
2023/05/19 03:19:40;;;;;;;;;;;;;;;-144.99;89.65;52297.25;5040021;28;19925;-66
2023/05/19 03:22:06;;;;;;;;;;;;;;;-144.99;88.58;52313.56;5042895;28;19931;-64
2023/05/19 03:24:33;;;;;;;;;;;;;;;-144.99;87.95;52291.16;5040893;28;19925;-65
2023/05/19 03:27:01;;;;;;;;;;;;;;;-144.99;87.83;52303.38;5040902;28;19929;-64
2023/05/19 03:29:27;;;;;;;;;;;;;;;-144.99;87.59;52280.97;5044672;28;20390;-65
2023/05/19 03:31:55;;;;;;;;;;;;;;;-144.99;87.61;52309.50;5038446;28;19940;-65
2023/05/19 03:34:22;;;;;;;;;;;;;;;-144.99;87.53;52248.34;5039677;28;19936;-64
2023/05/19 03:36:49;;;;;;;;;;;;;;;-144.99;87.37;52307.47;5042130;28;20417;-65
2023/05/19 03:39:15;;;;;;;;;;;;;;;-144.99;87.30;52268.72;5038990;28;20554;-65
2023/05/19 03:41:42;;;;;;;;;;;;;;;-144.99;87.23;52246.31;5038240;28;20411;-65
2023/05/19 03:44:09;;;;;;;;;;;;;;;-144.99;87.21;52256.50;5040741;28;20388;-65
2023/05/19 03:46:35;;;;;;;;;;;;;;;-144.99;87.16;52291.16;5046523;28;19931;-65
2023/05/19 03:49:03;;;;;;;;;;;;;;;-144.99;87.00;52289.13;5042549;28;19952;-64
2023/05/19 03:51:30;;;;;;;;;;;;;;;-144.99;86.99;52283.00;5036523;28;19932;-64
2023/05/19 03:53:57;;;;;;;;;;;;;;;-144.99;86.90;52319.69;5039786;28;20469;-66
2023/05/19 03:56:25;;;;;;;;;;;;;;;-144.99;86.82;52333.94;5039251;28;19929;-65
2023/05/19 03:58:53;;;;;;;;;;;;;;;-144.99;86.86;52264.66;5042601;28;19972;-65
2023/05/19 04:01:20;;;;;;;;;;;;;;;-144.99;86.70;52280.97;5043512;28;19929;-64
2023/05/19 04:03:46;;;;;;;;;;;;;;;-144.99;86.83;52260.56;5037836;28;19948;-64
2023/05/19 04:06:14;;;;;;;;;;;;;;;-144.99;86.98;52305.41;5042213;28;19925;-65
2023/05/19 04:08:43;;;;;;;;;;;;;;;-144.99;87.83;52276.88;5036154;28;20430;-65
2023/05/19 04:11:09;;;;;;;;;;;;;;;-144.99;87.97;52303.38;5036542;28;19929;-65
2023/05/19 04:13:36;;;;;;;;;;;;;;;-144.99;89.62;52297.25;5037766;28;19936;-65
2023/05/19 04:16:03;;;;;;;;;;;;;;;-144.99;87.65;52315.59;5045536;28;19930;-66
2023/05/19 04:18:29;;;;;;;;;;;;;;;-144.99;87.48;52285.03;5043928;28;19936;-65
2023/05/19 04:20:56;;;;;;;;;;;;;;;-144.99;87.47;52289.13;5045602;28;19933;-64
2023/05/19 04:23:24;;;;;;;;;;;;;;;-144.99;87.46;52301.34;5046521;28;20296;-66
2023/05/19 04:25:51;;;;;;;;;;;;;;;-144.99;87.44;52285.03;5045438;28;20419;-66
2023/05/19 04:28:17;;;;;;;;;;;;;;;-144.99;87.49;52256.50;5042586;28;19929;-66
2023/05/19 04:30:45;;;;;;;;;;;;;;;-144.99;87.14;52230.00;5046834;28;19975;-66
2023/05/19 04:33:11;;;;;;;;;;;;;;;-144.99;87.15;52256.50;5039735;28;20296;-65
2023/05/19 04:35:38;;;;;;;;;;;;;;;-144.99;86.93;52242.22;5036779;28;19925;-65
2023/05/19 04:38:05;;;;;;;;;;;;;;;-144.99;87.05;52299.31;5037078;28;20508;-67
2023/05/19 04:40:33;;;;;;;;;;;;;;;-144.99;86.98;52289.13;5039326;28;20289;-66
2023/05/19 04:43:00;;;;;;;;;;;;;;;-144.99;86.71;52260.56;5036416;28;20413;-65
2023/05/19 04:45:27;;;;;;;;;;;;;;;-144.99;86.57;52264.66;5042488;28;19928;-69
2023/05/19 04:47:56;;;;;;;;;;;;;;;-144.99;86.50;52280.97;5038231;28;19928;-71
2023/05/19 04:50:23;;;;;;;;;;;;;;;-144.99;86.46;52264.66;5037063;28;19936;-69
2023/05/19 04:52:50;;;;;;;;;;;;;;;-144.99;86.85;52260.56;5035605;28;20346;-70
2023/05/19 04:55:16;;;;;;;;;;;;;;;-144.99;86.42;52244.28;5038244;28;19943;-68
2023/05/19 04:57:45;;;;;;;;;;;;;;;-144.99;86.19;52248.34;5039917;28;20024;-67
2023/05/19 05:00:13;;;;;;;;;;;;;;;-144.99;87.81;52293.19;5038735;28;19925;-68
2023/05/19 05:02:40;;;;;;;;;;;;;;;-144.99;87.65;52248.34;5039263;28;19935;-68
2023/05/19 05:05:07;;;;;;;;;;;;;;;-144.99;87.24;52264.66;5037951;28;19931;-66
2023/05/19 05:07:34;;;;;;;;;;;;;;;-144.99;88.84;52272.81;5042121;28;19925;-66
2023/05/19 05:10:00;;;;;;;;;;;;;;;-144.99;88.14;52250.38;5034558;28;19936;-66
2023/05/19 05:12:27;;;;;;;;;;;;;;;-144.99;86.78;52260.56;5043109;28;19940;-67
2023/05/19 05:14:55;;;;;;;;;;;;;;;-144.99;88.28;52256.50;5045829;28;19925;-65
2023/05/19 05:17:24;;;;;;;;;;;;;;;-144.99;88.01;52252.44;5040185;28;19932;-66
2023/05/19 05:19:51;;;;;;;;;;;;;;;-144.99;88.31;52280.97;5041021;28;19939;-66
2023/05/19 05:22:18;;;;;;;;;;;;;;;-144.99;88.78;52280.97;5036007;28;19932;-67
2023/05/19 05:24:45;;;;;;;;;;;;;;;-144.99;88.11;52264.66;5038290;28;19930;-67
2023/05/19 05:27:12;;;;;;;;;;;;;;;-144.99;88.90;52264.66;5038833;28;19932;-70
2023/05/19 05:29:39;;;;;;;;;;;;;;;-144.99;86.54;52227.97;5040993;28;19928;-70
2023/05/19 05:32:07;;;;;;;;;;;;;;;-144.99;85.79;52234.09;5042619;28;20425;-68
2023/05/19 05:34:34;;;;;;;;;;;;;;;-144.99;85.42;52242.22;5037385;28;19929;-68
2023/05/19 05:37:01;;;;;;;;;;;;;;;-144.99;85.11;52240.19;5038152;28;19931;-69
2023/05/19 05:39:27;;;;;;;;;;;;;;;-144.99;84.65;52236.13;5034150;28;19929;-66
2023/05/19 05:41:54;;;;;;;;;;;;;;;-144.99;84.52;52268.72;5037122;28;19936;-67
2023/05/19 05:44:21;;;;;;;;;;;;;;;-144.99;84.38;52270.78;5038536;28;20401;-66
2023/05/19 05:46:48;;;;;;;;;;;;;;;-144.99;84.25;52250.38;5041836;28;19939;-66
2023/05/19 05:49:16;;;;;;;;;;;;;;;-144.99;83.94;52240.19;5039198;28;19940;-66
2023/05/19 05:51:43;;;;;;;;;;;;;;;-144.99;83.70;52215.75;5035567;28;19975;-66
2023/05/19 05:54:11;;;;;;;;;;;;;;;-144.99;83.63;52232.03;5045557;28;19925;-67
2023/05/19 05:56:39;;;;;;;;;;;;;;;-144.99;83.34;52227.97;5042981;28;20007;-67
2023/05/19 05:59:06;;;;;;;;;;;;;;;-144.99;83.21;52238.16;5040844;28;19929;-65
2023/05/19 06:01:34;;;;;;;;;;;;;;;-144.99;82.98;52199.44;5034142;28;19932;-66
2023/05/19 06:04:02;;;;;;;;;;;;;;;-144.99;82.64;52213.69;5034524;28;20571;-64
2023/05/19 06:06:31;;;;;;;;;;;;;;;-144.99;82.46;52232.03;5034801;28;19932;-64
2023/05/19 06:08:58;;;;;;;;;;;;;;;-144.99;82.18;52183.13;5038790;28;19948;-65
2023/05/19 06:11:24;;;;;;;;;;;;;;;-144.99;81.74;52227.97;5037734;28;19928;-63
2023/05/19 06:13:51;;;;;;;;;;;;;;;-144.99;81.65;52219.81;5035862;28;19975;-67
2023/05/19 06:16:18;;;;;;;;;;;;;;;-144.99;81.48;52211.66;5043455;28;19929;-64
2023/05/19 06:18:44;;;;;;;;;;;;;;;-144.99;81.06;52242.22;5047752;28;19925;-66
2023/05/19 06:21:12;;;;;;;;;;;;;;;-144.99;80.66;52215.75;5047552;28;19936;-65
2023/05/19 06:23:40;;;;;;;;;;;;;;;-144.99;80.57;52197.41;5041570;28;20004;-64
2023/05/19 06:26:07;;;;;;;;;;;;;;;-144.99;80.22;52215.75;5047114;28;19928;-65
2023/05/19 06:28:34;;;;;;;;;;;;;;;-144.99;80.14;52199.44;5048433;28;20010;-64
2023/05/19 06:31:00;;;;;;;;;;;;;;;-144.99;80.57;52215.75;5041049;28;20362;-65
2023/05/19 06:33:27;;;;;;;;;;;;;;;-144.99;80.11;52223.88;5040441;28;19937;-65
2023/05/19 06:35:54;;;;;;;;;;;;;;;-144.99;79.50;52195.34;5037570;28;19925;-65
2023/05/19 06:38:20;;;;;;;;;;;;;;;-144.99;79.29;52225.94;5041947;28;20023;-65
2023/05/19 06:40:49;;;;;;;;;;;;;;;-144.99;79.17;52195.34;5038798;28;19925;-68
2023/05/19 06:43:15;;;;;;;;;;;;;;;-144.99;80.16;52211.66;5045784;28;20085;-68
2023/05/19 06:45:42;;;;;;;;;;;;;;;-144.99;79.25;52227.97;5037791;28;19949;-67
2023/05/19 06:48:08;;;;;;;;;;;;;;;-144.99;79.81;52183.13;5046466;28;20003;-68
2023/05/19 06:50:35;;;;;;;;;;;;;;;-144.99;78.15;52232.03;5039359;28;20412;-69
2023/05/19 06:53:02;;;;;;;;;;;;;;;-144.99;77.33;52207.59;5042049;28;20012;-70
2023/05/19 06:55:28;;;;;;;;;;;;;;;-144.99;77.47;52195.34;5042978;28;19929;-69
2023/05/19 06:57:56;;;;;;;;;;;;;;;-144.99;77.87;52203.50;5039426;28;19933;-70
2023/05/19 07:00:23;;;;;;;;;;;;;;;-144.99;77.75;52174.97;5039276;28;21472;-69
2023/05/19 07:02:50;;;;;;;;;;;;;;;-144.99;77.94;52195.34;5019744;28;20068;-70
2023/05/19 07:05:17;;;;;;;;;;;;;;;-144.99;77.90;52215.75;5041238;28;19925;-70
2023/05/19 07:07:43;;;;;;;;;;;;;;;-144.99;77.07;52203.50;5042188;28;19939;-69
2023/05/19 07:10:10;;;;;;;;;;;;;;;-144.99;77.35;52240.19;5036057;28;19929;-70
2023/05/19 07:12:37;;;;;;;;;;;;;;;-144.99;76.93;52191.28;5040834;28;19928;-69
2023/05/19 07:15:06;;;;;;;;;;;;;;;-144.99;76.89;52240.19;5043242;28;20188;-67
2023/05/19 07:17:32;;;;;;;;;;;;;;;-144.99;76.62;52183.13;5046120;28;20602;-70
2023/05/19 07:20:05;;;;;;;;;;;;;;;-144.99;76.11;52227.97;5054720;28;19936;-72
2023/05/19 07:22:33;;;;;;;;;;;;;;;-144.99;75.14;52227.97;5040388;28;19925;-71
2023/05/19 07:25:00;;;;;;;;;;;;;;;-144.99;74.69;52199.44;5035862;28;20401;-71
2023/05/19 07:27:27;;;;;;;;;;;;;;;-144.99;75.73;52187.19;5042063;28;19932;-71
2023/05/19 07:29:53;;;;;;;;;;;;;;;-144.99;75.62;52213.69;5041468;28;20639;-70
2023/05/19 07:32:21;;;;;;;;;;;;;;;-144.99;75.65;52174.97;5038656;28;19948;-73
2023/05/19 07:34:48;;;;;;;;;;;;;;;-144.99;75.70;52170.91;5037359;28;19931;-68
2023/05/19 07:37:15;;;;;;;;;;;;;;;-144.99;75.59;52187.19;5041606;28;20393;-67
2023/05/19 07:39:42;;;;;;;;;;;;;;;-144.99;75.08;52199.44;5040012;28;20293;-68
2023/05/19 07:42:08;;;;;;;;;;;;;;;-144.99;73.95;52203.50;5037916;28;20354;-68
2023/05/19 07:44:35;;;;;;;;;;;;;;;-144.99;73.04;52162.75;5040450;28;19936;-67
2023/05/19 07:47:02;;;;;;;;;;;;;;;-144.99;72.87;52191.28;5041184;28;19924;-68
2023/05/19 07:49:30;;;;;;;;;;;;;;;-144.99;73.21;52146.44;5043324;28;19929;-69
2023/05/19 07:51:57;;;;;;;;;;;;;;;-144.99;74.13;52195.34;5035856;28;20381;-68
2023/05/19 07:54:23;;;;;;;;;;;;;;;-144.99;73.63;52166.81;5040188;28;19929;-67
2023/05/19 07:56:50;;;;;;;;;;;;;;;-144.99;73.63;52158.66;5040797;28;19955;-68
2023/05/19 07:59:17;;;;;;;;;;;;;;;-144.99;71.99;52158.66;5049377;28;19925;-68
2023/05/19 08:01:43;;;;;;;;;;;;;;;-144.99;71.91;52117.91;5054298;28;19948;-67
2023/05/19 08:04:11;;;;;;;;;;;;;;;-144.99;71.55;52174.97;5041969;28;20035;-68
2023/05/19 08:06:41;;;;;;;;;;;;;;;-144.99;71.45;52191.28;5036815;28;19976;-68
2023/05/19 08:09:08;;;;;;;;;;;;;;;-144.99;70.62;52160.72;5039872;28;19925;-68
2023/05/19 08:11:35;;;;;;;;;;;;;;;-144.99;70.31;52138.28;5037745;28;19932;-68
2023/05/19 08:14:02;;;;;;;;;;;;;;;-144.99;70.00;52150.53;5035744;28;19925;-68
2023/05/19 08:16:29;;;;;;;;;;;;;;;-144.99;70.20;52119.94;5042309;28;20282;-69
2023/05/19 08:18:56;;;;;;;;;;;;;;;-144.99;69.94;52138.28;5048920;28;19932;-69
2023/05/19 08:21:22;;;;;;;;;;;;;;;-144.99;69.81;52130.13;5049735;28;19925;-68
2023/05/19 08:23:50;;;;;;;;;;;;;;;-144.99;69.78;52130.13;5049081;28;20075;-68
2023/05/19 08:26:17;;;;;;;;;;;;;;;-144.99;69.82;52146.44;5036875;28;19925;-69
2023/05/19 08:28:44;;;;;;;;;;;;;;;-144.99;69.76;52126.06;5041054;28;19932;-71
2023/05/19 08:31:10;;;;;;;;;;;;;;;-144.99;70.19;52134.22;5024482;28;19991;-65
2023/05/19 08:33:37;;;;;;;;;;;;;;;-144.99;69.73;52136.25;5041125;28;20034;-66
2023/05/19 08:36:04;;;;;;;;;;;;;;;-144.99;69.93;52134.22;5046357;28;19933;-66
2023/05/19 08:38:30;;;;;;;;;;;;;;;-144.99;69.89;52162.75;5046437;28;19924;-66
2023/05/19 08:40:58;;;;;;;;;;;;;;;-144.99;70.58;52156.63;5042661;28;19932;-66
2023/05/19 08:43:25;;;;;;;;;;;;;;;-144.99;69.91;52132.19;5053780;28;19940;-66
2023/05/19 08:45:52;;;;;;;;;;;;;;;-144.99;70.04;52162.75;5045910;28;19932;-66
2023/05/19 08:48:19;;;;;;;;;;;;;;;-144.99;69.74;52130.13;5040586;28;19936;-62
2023/05/19 08:50:51;;;;;;;;;;;;;;;-144.99;69.33;52134.22;5042734;28;20301;-62
2023/05/19 08:53:21;;;;;;;;;;;;;;;-144.99;69.31;52138.28;5042615;28;20467;-62
2023/05/19 08:55:54;;;;;;;;;;;;;;;-144.99;69.37;52113.84;5042657;28;20309;-62
2023/05/19 08:58:22;;;;;;;;;;;;;;;-144.99;69.16;52089.38;5040536;28;19929;-69
2023/05/19 09:00:49;;;;;;;;;;;;;;;-144.99;68.97;52142.38;5043085;28;19929;-68
2023/05/19 09:03:17;;;;;;;;;;;;;;;-144.99;68.12;52093.44;5038299;28;20090;-68
2023/05/19 09:05:44;;;;;;;;;;;;;;;-144.99;68.53;52142.38;5042856;28;19925;-68
2023/05/19 09:08:11;;;;;;;;;;;;;;;-144.99;68.77;52117.91;5044875;28;19982;-68
2023/05/19 09:10:37;;;;;;;;;;;;;;;-144.99;68.86;52138.28;5049110;28;19925;-68
2023/05/19 09:13:05;;;;;;;;;;;;;;;-144.99;68.48;52136.25;5048282;28;19933;-67
2023/05/19 09:15:35;;;;;;;;;;;;;;;-144.99;68.24;52093.44;5042036;28;20329;-69
2023/05/19 09:18:08;;;;;;;;;;;;;;;-144.99;67.67;52069.00;5045304;28;20281;-67
2023/05/19 09:20:39;;;;;;;;;;;;;;;-144.99;67.25;52109.75;5048409;28;19929;-67
2023/05/19 09:23:06;;;;;;;;;;;;;;;-144.99;66.79;52109.75;5047677;28;19932;-69
2023/05/19 09:25:33;;;;;;;;;;;;;;;-144.99;66.39;52117.91;5054324;28;19936;-68
2023/05/19 09:28:00;;;;;;;;;;;;;;;-144.99;66.14;52105.69;5055195;28;19928;-67
2023/05/19 09:30:26;;;;;;;;;;;;;;;-144.99;65.52;52087.34;5048218;28;19933;-67
2023/05/19 09:32:54;;;;;;;;;;;;;;;-144.99;64.85;52093.44;5047971;28;19925;-67
2023/05/19 09:35:21;;;;;;;;;;;;;;;-144.99;65.24;52077.16;5048521;28;19925;-69
2023/05/19 09:37:48;;;;;;;;;;;;;;;-144.99;64.67;52107.72;5046642;28;20405;-68
2023/05/19 09:40:15;;;;;;;;;;;;;;;-144.99;64.29;52099.56;5044477;28;19994;-68
2023/05/19 09:42:42;;;;;;;;;;;;;;;-144.99;64.95;52101.59;5061656;22;19929;-71
2023/05/19 09:45:10;;;;;;;;;;;;;;;-144.99;64.77;52081.22;5029133;28;20249;-71
2023/05/19 09:47:37;;;;;;;;;;;;;;;-144.99;65.41;52130.13;5028679;28;19939;-71
2023/05/19 09:50:09;;;;;;;;;;;;;;;-144.99;65.39;52060.84;5029305;28;21121;-71
2023/05/19 09:52:37;;;;;;;;;;;;;;;-144.99;65.54;52069.00;5029298;28;19932;-72
2023/05/19 09:55:05;;;;;;;;;;;;;;;-144.99;65.03;52117.91;5029238;28;19937;-73
2023/05/19 09:57:36;;;;;;;;;;;;;;;-144.99;64.12;52064.91;5027611;28;19968;-72
2023/05/19 10:00:09;;;;;;;;;;;;;;;-144.99;63.49;52077.16;5029112;28;19925;-72
2023/05/19 10:02:35;;;;;;;;;;;;;;;-144.99;64.01;52069.00;5028828;28;19925;-72
2023/05/19 10:05:03;;;;;;;;;;;;;;;-144.99;63.49;52101.59;5027323;28;19929;-72
2023/05/19 10:07:32;;;;;;;;;;;;;;;-144.99;63.12;52075.09;5027310;28;20453;-72
2023/05/19 10:09:59;;;;;;;;;;;;;;;-144.99;62.80;52032.31;5027978;28;19925;-72
2023/05/19 10:12:26;;;;;;;;;;;;;;;-144.99;62.11;52052.69;5021985;28;19931;-72
2023/05/19 10:14:55;;;;;;;;;;;;;;;-144.99;62.42;52018.03;5018397;28;20289;-72
2023/05/19 10:17:22;;;;;;;;;;;;;;;-144.99;61.75;51999.69;5028097;28;20472;-72
2023/05/19 10:19:50;;;;;;;;;;;;;;;-144.99;60.73;52077.16;5029294;28;19925;-72
2023/05/19 10:22:17;;;;;;;;;;;;;;;-144.99;60.58;52032.31;5023804;28;20545;-72
2023/05/19 10:24:45;;;;;;;;;;;;;;;-144.99;61.00;52081.22;5022947;28;19925;-71
2023/05/19 10:27:14;;;;;;;;;;;;;;;-144.99;61.16;52089.38;5029009;28;19932;-72
2023/05/19 10:29:45;;;;;;;;;;;;;;;-144.99;61.67;52040.47;5027576;28;19925;-72
2023/05/19 10:32:15;;;;;;;;;;;;;;;-144.99;61.68;52073.06;5025378;28;20364;-71
2023/05/19 10:35:01;;;;;;;;;;;;;;;-144.99;61.31;51995.63;5025661;28;19929;-71
2023/05/19 10:37:34;;;;;;;;;;;;;;;-144.99;60.49;51946.72;5027724;28;19936;-72
2023/05/19 10:40:06;;;;;;;;;;;;;;;-144.99;60.44;52085.31;5022489;28;20394;-61
2023/05/19 10:42:40;;;;;;;;;;;;;;;-144.99;60.00;51979.31;5030300;28;20352;-72
2023/05/19 10:45:13;;;;;;;;;;;;;;;-144.99;60.30;51995.63;5025709;28;19925;-73
2023/05/19 10:47:40;;;;;;;;;;;;;;;-144.99;59.98;52064.91;5023723;28;19925;-72
2023/05/19 10:50:08;;;;;;;;;;;;;;;-144.99;59.49;52064.91;5034339;28;19925;-73
2023/05/19 10:52:37;;;;;;;;;;;;;;;-144.99;60.33;52103.66;5014603;28;19931;-72
2023/05/19 10:55:07;;;;;;;;;;;;;;;-144.99;60.84;51987.47;5033646;28;19936;-72
2023/05/19 10:57:34;;;;;;;;;;;;;;;-144.99;60.79;52089.38;5033852;28;19930;-72
2023/05/19 11:00:09;;;;;;;;;;;;;;;-144.99;60.03;52091.41;5023852;28;19937;-72
2023/05/19 11:02:37;;;;;;;;;;;;;;;-144.99;59.91;51967.09;5031289;28;19929;-73
2023/05/19 11:05:08;;;;;;;;;;;;;;;-144.99;59.99;51954.88;5033647;28;19933;-72
2023/05/19 11:07:34;;;;;;;;;;;;;;;-144.99;59.65;51950.78;5034720;28;19975;-72
2023/05/19 11:10:05;;;;;;;;;;;;;;;-144.99;58.72;51942.63;5032671;28;19936;-72
2023/05/19 11:12:39;;;;;;;;;;;;;;;-144.99;58.61;51916.16;5028175;28;19929;-72
2023/05/19 11:15:07;;;;;;;;;;;;;;;-144.99;58.12;51954.88;5024836;28;19944;-72
2023/05/19 11:17:34;;;;;;;;;;;;;;;-144.99;57.74;51932.44;5036483;28;19929;-72
2023/05/19 11:20:05;;;;;;;;;;;;;;;-144.99;57.50;51942.63;5029886;28;19983;-72
2023/05/19 11:22:34;;;;;;;;;;;;;;;-144.99;57.53;51967.09;5034930;28;19925;-72
2023/05/19 11:25:01;;;;;;;;;;;;;;;-144.99;57.69;51975.25;5031002;28;20164;-73
2023/05/19 11:27:30;;;;;;;;;;;;;;;-144.99;57.97;52003.78;5030036;28;19929;-71
2023/05/19 11:29:59;;;;;;;;;;;;;;;-144.99;57.47;51946.72;5030926;28;19933;-72
2023/05/19 11:32:26;;;;;;;;;;;;;;;-144.99;57.54;51963.03;5030754;28;20409;-72
2023/05/19 11:34:53;;;;;;;;;;;;;;;-144.99;57.28;51963.03;5030769;28;19932;-72
2023/05/19 11:37:20;;;;;;;;;;;;;;;-144.99;57.17;51942.63;5034180;28;20407;-73
2023/05/19 11:39:47;;;;;;;;;;;;;;;-144.99;57.15;51926.34;5034535;28;19929;-72
2023/05/19 11:42:14;;;;;;;;;;;;;;;-144.99;57.06;51932.44;5027818;28;19925;-73
2023/05/19 11:44:41;;;;;;;;;;;;;;;-144.99;56.76;51946.72;5027041;28;20412;-72
2023/05/19 11:47:09;;;;;;;;;;;;;;;-144.99;57.15;51967.09;5030168;28;20004;-72
2023/05/19 11:49:36;;;;;;;;;;;;;;;-144.99;57.13;51950.78;5033244;28;20015;-73
2023/05/19 11:52:03;;;;;;;;;;;;;;;-144.99;57.55;51979.31;5030994;28;19929;-71
2023/05/19 11:54:30;;;;;;;;;;;;;;;-144.99;56.75;51985.44;5022901;28;20305;-71
2023/05/19 11:56:57;;;;;;;;;;;;;;;-144.99;56.84;51999.69;5030858;28;19976;-72
2023/05/19 11:59:29;;;;;;;;;;;;;;;-144.99;57.15;52016.00;5029731;28;20337;-71
2023/05/19 12:01:56;;;;;;;;;;;;;;;-144.99;57.03;51999.69;5021819;28;19991;-71
2023/05/19 12:04:24;;;;;;;;;;;;;;;-144.99;56.80;51987.47;5032619;28;19925;-71
2023/05/19 12:06:51;;;;;;;;;;;;;;;-144.99;56.97;51973.22;5028161;28;19976;-72
2023/05/19 12:09:18;;;;;;;;;;;;;;;-144.99;57.17;51954.88;5036672;28;19929;-72
2023/05/19 12:11:45;;;;;;;;;;;;;;;-144.99;56.14;51963.03;5041377;28;19984;-72
2023/05/19 12:14:12;;;;;;;;;;;;;;;-144.99;56.29;51991.56;5044852;28;20385;-75
2023/05/19 12:16:38;;;;;;;;;;;;;;;-144.99;56.04;52048.63;5047618;28;19932;-73
2023/05/19 12:19:05;;;;;;;;;;;;;;;-144.99;56.05;52048.63;5029285;28;19929;-72
2023/05/19 12:21:34;;;;;;;;;;;;;;;-144.99;56.04;52007.84;5033619;28;19983;-72
2023/05/19 12:24:01;;;;;;;;;;;;;;;-144.99;56.18;52016.00;5024956;28;19929;-72
2023/05/19 12:26:28;;;;;;;;;;;;;;;-144.99;55.98;51954.88;5023926;28;19935;-71
2023/05/19 12:28:55;;;;;;;;;;;;;;;-144.99;56.16;51989.50;5031401;28;19925;-70
2023/05/19 12:31:22;;;;;;;;;;;;;;;-144.99;56.99;52044.53;5032000;28;19925;-69